Time;durP1;ratioP1;P1;durP2;ratioP2;P2;SDS_P1;SDS_P2;PMS_P1;PMS_P2;Temp;Humidity;BMP_temperature;BMP_pressure;BME280_temperature;BME280_humidity;BME280_pressure;Samples;Min_cycle;Max_cycle;Signal;HPM_P1;HPM_P2
2022/10/19 00:00:33;;;;;;;2.37;2.10;;;21.40;99.90;;;;;;5052766;28;20464;-46
2022/10/19 00:02:59;;;;;;;1.70;1.53;;;21.30;99.90;;;;;;5037645;28;20459;-46
2022/10/19 00:05:27;;;;;;;5.53;2.83;;;21.30;99.90;;;;;;5052978;28;20840;-45
2022/10/19 00:07:54;;;;;;;2.80;1.93;;;21.30;99.90;;;;;;5034813;28;20462;-46
2022/10/19 00:10:21;;;;;;;3.10;1.80;;;21.30;99.90;;;;;;5039061;28;20458;-46
2022/10/19 00:12:50;;;;;;;2.50;1.70;;;21.20;99.90;;;;;;5036333;28;20832;-44
2022/10/19 00:15:16;;;;;;;2.40;1.43;;;21.20;99.90;;;;;;5047606;28;20469;-46
2022/10/19 00:17:43;;;;;;;3.93;1.63;;;21.20;99.90;;;;;;5047745;28;20535;-46
2022/10/19 00:20:11;;;;;;;3.60;1.87;;;21.20;99.90;;;;;;5046267;28;20457;-44
2022/10/19 00:22:38;;;;;;;1.60;1.50;;;21.20;99.90;;;;;;5043306;28;20460;-46
2022/10/19 00:25:05;;;;;;;2.83;2.27;;;21.20;99.90;;;;;;5045594;28;20477;-43
2022/10/19 00:27:32;;;;;;;2.23;1.80;;;21.10;99.90;;;;;;5046547;28;20457;-46
2022/10/19 00:30:00;;;;;;;2.37;2.00;;;21.10;99.90;;;;;;5051833;28;20504;-46
2022/10/19 00:32:27;;;;;;;1.43;1.33;;;21.10;99.90;;;;;;5046082;28;20867;-47
2022/10/19 00:34:53;;;;;;;1.63;1.53;;;21.10;99.90;;;;;;5045626;28;21014;-46
2022/10/19 00:37:20;;;;;;;1.90;1.77;;;21.00;99.90;;;;;;5047485;28;20810;-44
2022/10/19 00:39:47;;;;;;;1.43;1.17;;;21.00;99.90;;;;;;5049976;28;20460;-44
2022/10/19 00:42:13;;;;;;;1.70;1.50;;;21.00;99.90;;;;;;5043788;28;20494;-46
2022/10/19 00:45:11;;;;;;;1.70;1.40;;;21.00;99.90;;;;;;5047316;28;20531;-43
2022/10/19 00:47:38;;;;;;;2.13;1.90;;;21.00;99.90;;;;;;5039561;28;20191;-46
2022/10/19 00:50:05;;;;;;;2.13;1.57;;;20.90;99.90;;;;;;5050922;28;20472;-45
2022/10/19 00:52:32;;;;;;;1.40;1.30;;;20.90;99.90;;;;;;5042951;28;20453;-44
2022/10/19 00:54:59;;;;;;;1.50;1.37;;;20.90;99.90;;;;;;5045844;28;20484;-46
2022/10/19 00:57:29;;;;;;;1.60;1.50;;;20.90;99.90;;;;;;5050693;28;20465;-46
2022/10/19 00:59:58;;;;;;;1.90;1.53;;;20.90;99.90;;;;;;5045475;28;20521;-42
2022/10/19 01:02:26;;;;;;;1.92;1.75;;;20.90;99.90;;;;;;5038582;28;20469;-45
2022/10/19 01:04:53;;;;;;;1.80;1.58;;;20.90;99.90;;;;;;5050464;28;20219;-45
2022/10/19 01:07:21;;;;;;;2.45;1.50;;;20.80;99.90;;;;;;5049453;28;20203;-47
2022/10/19 01:09:48;;;;;;;1.50;1.25;;;20.80;99.90;;;;;;5046560;28;20195;-47
2022/10/19 01:12:56;;;;;;;2.85;1.60;;;20.80;99.90;;;;;;5045534;28;20435;-48
2022/10/19 01:15:32;;;;;;;2.90;1.90;;;20.70;99.90;;;;;;4990912;28;20197;-45
2022/10/19 01:18:07;;;;;;;1.50;1.40;;;20.70;99.90;;;;;;4970146;28;20225;-41
2022/10/19 01:21:15;;;;;;;2.40;1.77;;;20.70;99.90;;;;;;5022572;28;20442;-45
2022/10/19 01:24:08;;;;;;;1.92;1.30;;;20.70;99.90;;;;;;5044417;28;20473;-47
2022/10/19 01:26:58;;;;;;;1.60;1.50;;;20.70;99.90;;;;;;5048264;28;20670;-46
2022/10/19 01:29:42;;;;;;;3.78;2.22;;;20.60;99.90;;;;;;5049360;28;20199;-47
2022/10/19 01:32:16;;;;;;;1.80;1.60;;;20.60;99.90;;;;;;5050237;28;20202;-43
2022/10/19 01:34:49;;;;;;;1.50;1.40;;;20.60;99.90;;;;;;5045081;28;20476;-43
2022/10/19 01:37:22;;;;;;;1.52;1.42;;;20.60;99.90;;;;;;5043519;28;20206;-45
2022/10/19 01:39:56;;;;;;;1.80;1.60;;;20.60;99.90;;;;;;5050964;28;20585;-45
2022/10/19 01:42:29;;;;;;;1.48;1.38;;;20.50;99.90;;;;;;5045554;28;20211;-45
2022/10/19 01:45:04;;;;;;;1.42;1.20;;;20.50;99.90;;;;;;5051290;28;20792;-48
2022/10/19 01:47:35;;;;;;;1.40;1.30;;;20.50;99.90;;;;;;5041809;28;20198;-47
2022/10/19 01:50:06;;;;;;;2.10;1.70;;;20.50;99.90;;;;;;5051178;28;20874;-46
2022/10/19 01:52:34;;;;;;;3.25;1.80;;;20.50;99.90;;;;;;5045309;28;20191;-46
2022/10/19 01:55:02;;;;;;;1.73;1.30;;;20.50;99.90;;;;;;5046846;28;20195;-42
2022/10/19 01:57:33;;;;;;;2.75;1.48;;;20.40;99.90;;;;;;5045107;28;20206;-45
2022/10/19 02:00:06;;;;;;;2.00;1.65;;;20.40;99.90;;;;;;5051233;28;20699;-42
2022/10/19 02:02:36;;;;;;;2.25;1.88;;;20.40;99.90;;;;;;5042098;28;20677;-47
2022/10/19 02:05:04;;;;;;;1.77;1.50;;;20.40;99.90;;;;;;5046625;28;20222;-48
2022/10/19 02:07:32;;;;;;;1.80;1.63;;;20.40;99.90;;;;;;5040618;28;20201;-45
2022/10/19 02:09:59;;;;;;;2.10;1.90;;;20.40;99.90;;;;;;5050209;28;20202;-43
2022/10/19 02:12:28;;;;;;;1.70;1.58;;;20.40;99.90;;;;;;5048546;28;20214;-42
2022/10/19 02:15:01;;;;;;;2.22;1.52;;;20.30;99.90;;;;;;5045448;28;20191;-48
2022/10/19 02:17:31;;;;;;;1.42;1.17;;;20.30;99.90;;;;;;5035445;28;20212;-45
2022/10/19 02:20:00;;;;;;;1.55;1.42;;;20.30;99.90;;;;;;5054590;28;20191;-45
2022/10/19 02:22:27;;;;;;;2.00;1.90;;;20.30;99.90;;;;;;5044697;28;20613;-45
2022/10/19 02:24:54;;;;;;;1.85;1.40;;;20.30;99.90;;;;;;5053803;28;20214;-41
2022/10/19 02:27:21;;;;;;;2.38;1.40;;;20.20;99.90;;;;;;5049486;28;20195;-46
2022/10/19 02:29:48;;;;;;;1.50;1.38;;;20.20;99.90;;;;;;5037569;28;20195;-49
2022/10/19 02:32:15;;;;;;;1.55;1.45;;;20.20;99.90;;;;;;5034708;28;20207;-44
2022/10/19 02:34:42;;;;;;;1.70;1.40;;;20.20;99.90;;;;;;5045609;28;20716;-45
2022/10/19 02:37:10;;;;;;;1.80;1.52;;;20.20;99.90;;;;;;5042360;28;20202;-46
2022/10/19 02:39:38;;;;;;;2.10;1.50;;;20.20;99.90;;;;;;5048280;28;20684;-45
2022/10/19 02:42:10;;;;;;;3.40;1.65;;;20.20;99.90;;;;;;5049880;28;20207;-45
2022/10/19 02:44:42;;;;;;;1.55;1.42;;;20.10;99.90;;;;;;5046577;28;20226;-46
2022/10/19 02:47:14;;;;;;;1.80;1.70;;;20.10;99.90;;;;;;5053009;28;20198;-45
2022/10/19 02:49:42;;;;;;;2.50;1.45;;;20.10;99.90;;;;;;5043457;28;20593;-46
2022/10/19 02:52:12;;;;;;;2.05;1.60;;;20.10;99.90;;;;;;5046186;28;20198;-43
2022/10/19 02:54:41;;;;;;;1.60;1.50;;;20.00;99.90;;;;;;5041168;28;20722;-43
2022/10/19 02:57:16;;;;;;;1.80;1.40;;;20.00;99.90;;;;;;5052175;28;20249;-45
2022/10/19 02:59:42;;;;;;;2.63;1.67;;;20.00;99.90;;;;;;5046707;28;20191;-43
2022/10/19 03:02:09;;;;;;;5.10;1.63;;;20.00;99.90;;;;;;5047244;28;20191;-42
2022/10/19 03:04:36;;;;;;;1.52;1.40;;;20.00;99.90;;;;;;5051886;28;20223;-46
2022/10/19 03:07:02;;;;;;;1.63;1.52;;;20.00;99.90;;;;;;5048644;28;20218;-47
2022/10/19 03:09:30;;;;;;;1.98;1.80;;;20.00;99.90;;;;;;5051466;28;20196;-44
2022/10/19 03:11:57;;;;;;;1.70;1.30;;;19.90;99.90;;;;;;5051347;28;20784;-44
2022/10/19 03:14:24;;;;;;;1.77;1.65;;;19.90;99.90;;;;;;5054547;28;20210;-47
2022/10/19 03:16:50;;;;;;;1.80;1.52;;;19.90;99.90;;;;;;5044371;28;20207;-46
2022/10/19 03:19:17;;;;;;;1.42;1.33;;;19.90;99.90;;;;;;5051616;28;20199;-44
2022/10/19 03:21:44;;;;;;;2.00;1.88;;;19.90;99.90;;;;;;5045345;28;20199;-46
2022/10/19 03:24:11;;;;;;;1.73;1.60;;;19.90;99.90;;;;;;5048862;28;20684;-48
2022/10/19 03:26:39;;;;;;;1.73;1.42;;;19.80;99.90;;;;;;5045635;28;20211;-45
2022/10/19 03:29:05;;;;;;;1.83;1.63;;;19.80;99.90;;;;;;5053836;28;20252;-44
2022/10/19 03:31:32;;;;;;;1.58;1.33;;;19.80;99.90;;;;;;5040557;28;20199;-44
2022/10/19 03:33:59;;;;;;;1.58;1.35;;;19.80;99.90;;;;;;5049392;28;20191;-46
2022/10/19 03:36:27;;;;;;;1.40;1.27;;;19.80;99.90;;;;;;5047553;28;20195;-44
2022/10/19 03:38:56;;;;;;;1.80;1.50;;;19.80;99.90;;;;;;5047706;28;20198;-45
2022/10/19 03:41:24;;;;;;;1.55;1.40;;;19.70;99.90;;;;;;5041472;28;20204;-41
2022/10/19 03:43:53;;;;;;;1.90;1.60;;;19.70;99.90;;;;;;5046395;28;20200;-43
2022/10/19 03:46:19;;;;;;;1.40;1.30;;;19.80;99.90;;;;;;5051907;28;20219;-42
2022/10/19 03:48:46;;;;;;;1.67;1.50;;;20.20;99.90;;;;;;5049604;28;20207;-45
2022/10/19 03:51:15;;;;;;;2.13;1.13;;;20.30;99.90;;;;;;5048664;28;20204;-42
2022/10/19 03:53:42;;;;;;;1.25;1.13;;;20.50;99.90;;;;;;5051560;28;20561;-44
2022/10/19 03:56:12;;;;;;;1.50;1.20;;;20.60;99.90;;;;;;5049900;28;20206;-48
2022/10/19 03:58:40;;;;;;;1.25;1.13;;;20.80;99.90;;;;;;5033155;28;20183;-45
2022/10/19 04:01:10;;;;;;;2.28;1.52;;;21.00;99.90;;;;;;5033287;28;20195;-47
2022/10/19 04:03:37;;;;;;;1.85;1.48;;;21.10;99.90;;;;;;5040465;28;20283;-46
2022/10/19 04:06:06;;;;;;;1.35;1.23;;;21.00;99.90;;;;;;5042301;28;20216;-46
2022/10/19 04:08:33;;;;;;;1.67;1.57;;;21.10;99.90;;;;;;5051090;28;20650;-43
2022/10/19 04:11:01;;;;;;;1.30;1.10;;;21.30;99.90;;;;;;5050037;28;20503;-47
2022/10/19 04:13:28;;;;;;;2.60;1.60;;;21.30;99.90;;;;;;5051282;28;20477;-43
2022/10/19 04:15:55;;;;;;;2.40;1.10;;;21.30;99.90;;;;;;5048424;28;20469;-46
2022/10/19 04:18:23;;;;;;;1.40;1.30;;;21.30;99.90;;;;;;5051535;28;20545;-46
2022/10/19 04:20:55;;;;;;;1.50;1.30;;;21.20;99.90;;;;;;5051676;28;20445;-43
2022/10/19 04:23:22;;;;;;;2.93;1.30;;;21.10;99.90;;;;;;5043595;28;20515;-45
2022/10/19 04:25:49;;;;;;;1.20;1.10;;;21.10;99.90;;;;;;5047987;28;20474;-45
2022/10/19 04:28:16;;;;;;;1.50;1.40;;;21.10;99.90;;;;;;5052325;28;20972;-46
2022/10/19 04:30:42;;;;;;;2.20;1.10;;;21.00;99.90;;;;;;5051159;28;20457;-46
2022/10/19 04:33:09;;;;;;;1.80;1.70;;;21.00;99.90;;;;;;5046222;28;20464;-45
2022/10/19 04:35:37;;;;;;;1.27;1.17;;;21.00;99.90;;;;;;5047726;28;20465;-48
2022/10/19 04:38:04;;;;;;;1.30;1.03;;;20.90;99.90;;;;;;5039254;28;20462;-46
2022/10/19 04:40:30;;;;;;;1.20;1.10;;;20.90;99.90;;;;;;5046594;28;20466;-44
2022/10/19 04:42:57;;;;;;;1.50;1.07;;;20.80;99.90;;;;;;5050333;28;20449;-45
2022/10/19 04:45:24;;;;;;;1.30;1.07;;;20.80;99.90;;;;;;5051630;28;20848;-42
2022/10/19 04:47:53;;;;;;;1.73;1.20;;;20.80;99.90;;;;;;5050052;28;20837;-45
2022/10/19 04:50:19;;;;;;;4.33;1.10;;;20.70;99.90;;;;;;5049162;28;20437;-49
2022/10/19 04:52:47;;;;;;;1.93;1.43;;;20.70;99.90;;;;;;5050804;28;20461;-46
2022/10/19 04:55:14;;;;;;;1.40;1.30;;;20.70;99.90;;;;;;5049180;28;20651;-45
2022/10/19 04:57:41;;;;;;;1.00;0.87;;;20.70;99.90;;;;;;5051334;28;20504;-45
2022/10/19 05:00:09;;;;;;;1.50;1.33;;;20.70;99.90;;;;;;5046342;28;20461;-45
2022/10/19 05:02:36;;;;;;;1.30;1.10;;;20.70;99.90;;;;;;5050581;28;20563;-47
2022/10/19 05:05:02;;;;;;;1.90;1.30;;;20.70;99.90;;;;;;5047848;28;20465;-43
2022/10/19 05:07:29;;;;;;;1.30;1.17;;;20.70;99.90;;;;;;5044990;28;20462;-42
2022/10/19 05:09:57;;;;;;;1.40;1.27;;;20.70;99.90;;;;;;5047639;28;20458;-46
2022/10/19 05:12:24;;;;;;;1.40;1.10;;;20.70;99.90;;;;;;5044365;28;20507;-47
2022/10/19 05:14:50;;;;;;;1.50;1.10;;;20.70;99.90;;;;;;5037637;28;20446;-45
2022/10/19 05:17:17;;;;;;;1.40;1.10;;;20.80;99.90;;;;;;5032196;28;20498;-44
2022/10/19 05:19:44;;;;;;;1.40;1.13;;;20.70;99.90;;;;;;5049789;28;21078;-44
2022/10/19 05:22:10;;;;;;;1.40;1.10;;;20.80;99.90;;;;;;5045751;28;20809;-44
2022/10/19 05:24:37;;;;;;;1.07;0.80;;;20.80;99.90;;;;;;5049500;28;20462;-44
2022/10/19 05:27:05;;;;;;;1.63;1.20;;;20.90;99.90;;;;;;5051428;28;20473;-46
2022/10/19 05:29:32;;;;;;;1.40;1.30;;;20.90;99.90;;;;;;5050922;28;20473;-45
2022/10/19 05:31:59;;;;;;;1.17;1.00;;;21.00;99.90;;;;;;5042293;28;20443;-42
2022/10/19 05:34:26;;;;;;;1.20;1.10;;;21.10;99.90;;;;;;5034901;28;20458;-47
2022/10/19 05:36:55;;;;;;;1.47;1.23;;;21.10;99.90;;;;;;5041787;28;20465;-47
2022/10/19 05:39:23;;;;;;;1.60;1.40;;;21.10;99.90;;;;;;5045839;28;20557;-46
2022/10/19 05:41:50;;;;;;;1.10;0.90;;;21.10;99.90;;;;;;5049725;28;20457;-44
2022/10/19 05:44:20;;;;;;;1.40;1.30;;;21.10;99.90;;;;;;5040328;28;20442;-43
2022/10/19 05:46:47;;;;;;;1.43;1.33;;;21.10;99.90;;;;;;5041001;28;20469;-43
2022/10/19 05:49:14;;;;;;;1.00;0.90;;;21.10;99.90;;;;;;5042992;28;20507;-42
2022/10/19 05:51:41;;;;;;;1.30;1.03;;;21.10;99.90;;;;;;5043328;28;20473;-43
2022/10/19 05:54:08;;;;;;;1.33;1.23;;;21.00;99.90;;;;;;5042028;28;20463;-43
2022/10/19 05:56:35;;;;;;;1.50;0.83;;;21.00;99.90;;;;;;5042676;28;20569;-42
2022/10/19 05:59:04;;;;;;;1.80;1.13;;;21.00;99.90;;;;;;5038491;28;20462;-42
2022/10/19 06:01:33;;;;;;;1.80;1.40;;;20.90;99.90;;;;;;5045243;28;20461;-42
2022/10/19 06:04:01;;;;;;;1.00;0.90;;;20.90;99.90;;;;;;5042419;28;20459;-43
2022/10/19 06:06:28;;;;;;;1.10;0.90;;;20.90;99.90;;;;;;5048242;28;20473;-42
2022/10/19 06:08:57;;;;;;;1.27;1.17;;;20.90;99.90;;;;;;5046225;28;20458;-42
2022/10/19 06:11:27;;;;;;;1.10;0.93;;;20.90;99.90;;;;;;5041738;28;20446;-42
2022/10/19 06:13:54;;;;;;;1.50;1.07;;;20.90;99.90;;;;;;5048755;28;20446;-42
2022/10/19 06:16:22;;;;;;;1.30;1.00;;;20.90;99.90;;;;;;5030875;28;20463;-42
2022/10/19 06:18:52;;;;;;;1.27;1.00;;;20.90;99.90;;;;;;5048666;28;20518;-41
2022/10/19 06:21:20;;;;;;;1.30;1.10;;;20.80;99.90;;;;;;5047500;28;20465;-44
2022/10/19 06:23:50;;;;;;;1.13;1.00;;;20.80;99.90;;;;;;5049211;28;20458;-42
2022/10/19 06:26:17;;;;;;;1.10;1.00;;;20.80;99.90;;;;;;5047348;28;20479;-42
2022/10/19 06:28:44;;;;;;;1.43;0.87;;;20.80;99.90;;;;;;5050765;28;20450;-42
2022/10/19 06:31:12;;;;;;;1.47;1.00;;;20.80;99.90;;;;;;5038912;28;20450;-41
2022/10/19 06:33:39;;;;;;;1.20;1.00;;;20.80;99.90;;;;;;5049824;28;20429;-42
2022/10/19 06:36:08;;;;;;;1.60;1.50;;;20.80;99.90;;;;;;5035840;28;20465;-41
2022/10/19 06:38:35;;;;;;;1.03;0.90;;;20.80;99.90;;;;;;5048515;28;20449;-41
2022/10/19 06:41:01;;;;;;;1.20;0.83;;;20.80;99.90;;;;;;5044063;28;20503;-42
2022/10/19 06:43:28;;;;;;;1.10;1.00;;;20.80;99.90;;;;;;5044130;28;20531;-41
2022/10/19 06:45:55;;;;;;;1.17;1.07;;;20.90;99.90;;;;;;5043914;28;20485;-41
2022/10/19 06:48:22;;;;;;;1.27;0.97;;;20.90;99.90;;;;;;5050244;28;20434;-41
2022/10/19 06:50:56;;;;;;;1.20;1.10;;;20.90;99.90;;;;;;5048382;28;20472;-42
2022/10/19 06:53:24;;;;;;;1.77;1.30;;;21.00;99.90;;;;;;5050793;28;20988;-50
2022/10/19 06:55:51;;;;;;;4.93;3.67;;;21.10;99.90;;;;;;5036272;28;20830;-48
2022/10/19 06:58:18;;;;;;;5.53;3.70;;;20.00;99.90;;;;;;5030328;28;20443;-51
2022/10/19 07:00:44;;;;;;;14.87;3.33;;;19.30;99.90;;;;;;5040822;28;20834;-50
2022/10/19 07:03:11;;;;;;;8.50;3.80;;;19.10;99.90;;;;;;5042037;28;20472;-46
2022/10/19 07:05:38;;;;;;;4.83;3.40;;;19.10;99.90;;;;;;5052898;28;20446;-49
2022/10/19 07:08:04;;;;;;;3.20;2.87;;;19.00;99.90;;;;;;5052167;28;20465;-48
2022/10/19 07:10:32;;;;;;;11.30;3.33;;;19.00;99.90;;;;;;5052944;28;20959;-49
2022/10/19 07:12:59;;;;;;;6.30;3.70;;;18.90;99.90;;;;;;5054117;28;20446;-49
2022/10/19 07:15:26;;;;;;;6.18;3.25;;;18.80;99.90;;;;;;5048843;28;20203;-49
2022/10/19 07:17:53;;;;;;;3.63;3.03;;;18.70;99.90;;;;;;5045074;28;20207;-48
2022/10/19 07:20:19;;;;;;;3.45;2.58;;;18.90;99.90;;;;;;5052175;28;20199;-48
2022/10/19 07:22:46;;;;;;;4.40;3.55;;;18.80;99.90;;;;;;5048680;28;20187;-48
2022/10/19 07:25:13;;;;;;;5.87;3.43;;;18.70;99.90;;;;;;5044793;28;20696;-50
2022/10/19 07:27:41;;;;;;;3.50;3.20;;;18.70;99.90;;;;;;5053693;28;20476;-49
2022/10/19 07:30:08;;;;;;;8.90;3.05;;;18.70;99.90;;;;;;5047123;28;21897;-50
2022/10/19 07:32:35;;;;;;;3.70;3.40;;;18.70;99.90;;;;;;5051505;28;20674;-51
2022/10/19 07:35:01;;;;;;;4.10;3.50;;;18.70;99.90;;;;;;5041417;28;20459;-48
2022/10/19 07:37:28;;;;;;;4.10;3.13;;;18.70;99.90;;;;;;5041742;28;20195;-48
2022/10/19 07:39:55;;;;;;;5.10;4.60;;;18.60;99.90;;;;;;5044715;28;20199;-48
2022/10/19 07:42:21;;;;;;;3.60;3.30;;;18.60;99.90;;;;;;5046101;28;20617;-46
2022/10/19 07:44:49;;;;;;;4.43;4.00;;;18.60;99.90;;;;;;5048701;28;20198;-47
2022/10/19 07:47:16;;;;;;;5.72;4.25;;;18.70;99.90;;;;;;5036296;28;20223;-48
2022/10/19 07:49:43;;;;;;;3.97;3.60;;;18.70;99.90;;;;;;5045350;28;20195;-47
2022/10/19 07:52:09;;;;;;;6.70;4.20;;;18.70;99.90;;;;;;5039441;28;20680;-48
2022/10/19 07:54:36;;;;;;;4.07;3.63;;;18.70;99.90;;;;;;5044276;28;20484;-49
2022/10/19 07:57:03;;;;;;;6.03;4.18;;;18.80;99.90;;;;;;5043078;28;20248;-48
2022/10/19 07:59:30;;;;;;;5.30;3.58;;;18.70;99.90;;;;;;5052694;28;20657;-47
2022/10/19 08:02:01;;;;;;;5.78;4.50;;;18.70;99.90;;;;;;5051398;28;20191;-48
2022/10/19 08:04:27;;;;;;;5.57;3.47;;;18.70;99.90;;;;;;5050112;28;20203;-47
2022/10/19 08:06:54;;;;;;;7.43;3.80;;;18.70;99.90;;;;;;5044701;28;20605;-48
2022/10/19 08:09:21;;;;;;;4.78;4.28;;;18.70;99.90;;;;;;5052092;28;20518;-49
2022/10/19 08:11:47;;;;;;;6.43;4.40;;;18.70;99.90;;;;;;5047934;28;20567;-47
2022/10/19 08:14:14;;;;;;;9.80;4.18;;;18.90;99.90;;;;;;5049560;28;20600;-49
2022/10/19 08:16:43;;;;;;;6.53;4.15;;;18.80;99.90;;;;;;5049655;28;21633;-46
2022/10/19 08:19:13;;;;;;;4.55;4.10;;;19.00;99.90;;;;;;5044810;28;20191;-49
2022/10/19 08:21:42;;;;;;;13.48;4.65;;;19.00;99.90;;;;;;5044400;28;20192;-48
2022/10/19 08:24:09;;;;;;;8.45;5.25;;;18.90;99.90;;;;;;5044365;28;20199;-49
2022/10/19 08:26:38;;;;;;;7.25;4.40;;;19.00;99.90;;;;;;5043483;28;20211;-47
2022/10/19 08:29:07;;;;;;;4.45;3.83;;;18.90;99.90;;;;;;5037480;28;20219;-47
2022/10/19 08:31:34;;;;;;;5.95;4.43;;;19.10;99.90;;;;;;5039192;28;20578;-46
2022/10/19 08:34:00;;;;;;;5.50;3.97;;;19.10;99.90;;;;;;5049578;28;20199;-50
2022/10/19 08:36:30;;;;;;;7.45;4.53;;;19.10;99.90;;;;;;5041301;28;20203;-39
2022/10/19 08:38:57;;;;;;;3.20;2.00;;;19.00;99.90;;;;;;5033917;28;20662;-44
2022/10/19 08:41:31;;;;;;;4.90;2.50;;;19.50;99.90;;;;;;5040530;28;20207;-45
2022/10/19 08:44:23;;;;;;;2.80;2.03;;;19.70;99.90;;;;;;5041979;28;20440;-42
2022/10/19 08:46:57;;;;;;;4.33;2.23;;;20.10;99.90;;;;;;5035089;28;20485;-43
2022/10/19 08:49:26;;;;;;;3.63;2.00;;;20.60;99.90;;;;;;5047019;28;20461;-41
2022/10/19 08:51:58;;;;;;;3.37;1.77;;;21.00;99.90;;;;;;5050536;28;20859;-43
2022/10/19 08:54:37;;;;;;;3.17;1.80;;;21.20;99.90;;;;;;5046660;28;20457;-46
2022/10/19 08:57:13;;;;;;;3.23;2.43;;;21.30;99.90;;;;;;5043495;28;20434;-43
2022/10/19 08:59:46;;;;;;;5.27;1.83;;;21.30;99.90;;;;;;5050876;28;20441;-44
2022/10/19 09:02:17;;;;;;;3.60;1.80;;;21.40;99.90;;;;;;5043385;28;20511;-40
2022/10/19 09:04:50;;;;;;;2.77;2.00;;;21.50;99.90;;;;;;5047800;28;20460;-45
2022/10/19 09:07:27;;;;;;;2.33;1.87;;;21.60;99.90;;;;;;5044704;28;20478;-40
2022/10/19 09:09:57;;;;;;;4.77;2.00;;;21.60;99.90;;;;;;5050885;28;20457;-44
2022/10/19 09:12:37;;;;;;;3.10;2.23;;;21.70;99.90;;;;;;5049559;28;20442;-46
2022/10/19 09:15:07;;;;;;;3.70;2.20;;;21.70;99.90;;;;;;5058809;28;20958;-44
2022/10/19 09:17:34;;;;;;;1.97;1.80;;;21.70;99.90;;;;;;5043168;28;20465;-42
2022/10/19 09:20:14;;;;;;;2.73;2.20;;;21.70;99.90;;;;;;5038558;28;20480;-42
2022/10/19 09:22:43;;;;;;;2.20;2.00;;;21.70;99.90;;;;;;5034702;28;21002;-43
2022/10/19 09:25:18;;;;;;;2.77;1.73;;;21.70;99.90;;;;;;5039272;28;20488;-43
2022/10/19 09:27:48;;;;;;;1.73;1.50;;;21.70;99.90;;;;;;5042207;28;20468;-43
2022/10/19 09:30:18;;;;;;;2.33;1.87;;;21.70;99.90;;;;;;5046762;28;20499;-42
2022/10/19 09:32:46;;;;;;;2.33;2.13;;;21.70;99.90;;;;;;5047266;28;20473;-40
2022/10/19 09:35:26;;;;;;;4.23;1.67;;;21.80;99.90;;;;;;5046280;28;20461;-38
2022/10/19 09:37:55;;;;;;;1.83;1.73;;;21.80;99.90;;;;;;5048715;28;20461;-42
2022/10/19 09:40:25;;;;;;;1.93;1.70;;;21.80;99.90;;;;;;5048522;28;20867;-39
2022/10/19 09:42:56;;;;;;;1.50;1.40;;;21.80;99.90;;;;;;5032300;28;20459;-40
2022/10/19 09:45:33;;;;;;;1.80;1.40;;;21.80;99.90;;;;;;5046839;28;20462;-41
2022/10/19 09:48:02;;;;;;;2.93;1.50;;;21.80;99.90;;;;;;5042852;28;20481;-42
2022/10/19 09:50:30;;;;;;;2.27;1.40;;;21.80;99.90;;;;;;5048846;28;20453;-42
2022/10/19 09:53:02;;;;;;;2.00;1.60;;;21.80;99.90;;;;;;5041586;28;20572;-40
2022/10/19 09:55:36;;;;;;;3.67;1.57;;;21.80;99.90;;;;;;5044497;28;20829;-42
2022/10/19 09:58:05;;;;;;;3.00;1.60;;;21.90;99.90;;;;;;5033567;28;21204;-43
2022/10/19 10:00:35;;;;;;;2.03;1.33;;;21.90;99.90;;;;;;5049073;28;20465;-42
2022/10/19 10:03:02;;;;;;;2.70;1.50;;;21.90;99.90;;;;;;5032758;28;20458;-42
2022/10/19 10:05:34;;;;;;;1.97;1.37;;;21.90;99.90;;;;;;5049470;28;20445;-42
2022/10/19 10:08:03;;;;;;;2.10;1.80;;;21.90;99.90;;;;;;5049842;28;20480;-42
2022/10/19 10:10:37;;;;;;;1.80;1.53;;;22.00;99.90;;;;;;5043468;28;20466;-41
2022/10/19 10:13:04;;;;;;;2.27;1.40;;;21.90;99.90;;;;;;5050173;28;20453;-42
2022/10/19 10:15:43;;;;;;;2.00;1.50;;;22.00;99.90;;;;;;5049190;28;20464;-41
2022/10/19 10:18:14;;;;;;;2.70;1.10;;;22.00;99.90;;;;;;5046288;28;20480;-40
2022/10/19 10:20:56;;;;;;;1.43;1.33;;;22.00;99.90;;;;;;5042729;28;20800;-40
2022/10/19 10:23:27;;;;;;;2.03;1.70;;;22.00;99.90;;;;;;5041345;28;20465;-42
2022/10/19 10:25:56;;;;;;;1.43;1.30;;;22.00;99.90;;;;;;5047633;28;20453;-39
2022/10/19 10:28:25;;;;;;;2.13;1.50;;;22.00;99.90;;;;;;5047319;28;20520;-42
2022/10/19 10:30:58;;;;;;;1.40;1.27;;;22.10;99.90;;;;;;5048107;28;20457;-41
2022/10/19 10:33:28;;;;;;;2.50;1.60;;;22.10;99.90;;;;;;5045115;28;20457;-41
2022/10/19 10:36:01;;;;;;;2.07;1.30;;;22.10;99.90;;;;;;5042867;28;20446;-40
2022/10/19 10:38:32;;;;;;;1.87;1.40;;;22.10;99.90;;;;;;5039836;28;20483;-43
2022/10/19 10:41:03;;;;;;;8.20;1.40;;;22.10;99.90;;;;;;5044122;28;20467;-43
2022/10/19 10:43:31;;;;;;;1.67;1.03;;;22.10;99.90;;;;;;5050540;28;20954;-44
2022/10/19 10:46:03;;;;;;;1.20;1.00;;;22.20;99.90;;;;;;5047869;28;20450;-43
2022/10/19 10:48:32;;;;;;;1.30;1.00;;;22.20;99.90;;;;;;5051346;28;20489;-41
2022/10/19 10:51:01;;;;;;;2.90;1.77;;;22.20;99.90;;;;;;5051494;28;20959;-39
2022/10/19 10:53:42;;;;;;;1.80;1.37;;;22.20;99.90;;;;;;5053142;28;20962;-39
2022/10/19 10:56:25;;;;;;;1.20;1.10;;;22.20;99.90;;;;;;5047952;28;20492;-37
2022/10/19 10:58:58;;;;;;;2.80;1.80;;;22.20;99.90;;;;;;5042235;28;20439;-36
2022/10/19 11:01:30;;;;;;;1.97;1.70;;;22.20;99.90;;;;;;5049550;28;20470;-41
2022/10/19 11:04:03;;;;;;;1.70;1.40;;;22.20;99.90;;;;;;5044270;28;20453;-41
2022/10/19 11:06:31;;;;;;;2.33;1.20;;;22.30;99.90;;;;;;5048911;28;20461;-41
2022/10/19 11:09:07;;;;;;;1.60;1.40;;;22.30;99.90;;;;;;5048661;28;21005;-41
2022/10/19 11:11:39;;;;;;;1.60;1.50;;;22.30;99.90;;;;;;5052794;28;20480;-40
2022/10/19 11:14:32;;;;;;;1.10;1.00;;;22.30;99.90;;;;;;5045892;28;20462;-39
2022/10/19 11:17:03;;;;;;;1.30;1.13;;;22.30;99.90;;;;;;5040727;28;20494;-40
2022/10/19 11:19:35;;;;;;;1.73;1.20;;;22.30;99.90;;;;;;5051982;28;20652;-43
2022/10/19 11:22:10;;;;;;;1.40;1.30;;;22.30;99.90;;;;;;5051862;28;20454;-42
2022/10/19 11:24:52;;;;;;;2.27;1.10;;;22.30;99.90;;;;;;5040667;28;20456;-43
2022/10/19 11:27:30;;;;;;;1.60;1.50;;;22.30;99.90;;;;;;5051615;28;20477;-42
2022/10/19 11:30:09;;;;;;;1.50;1.20;;;22.30;99.90;;;;;;5056085;28;20449;-42
2022/10/19 11:32:58;;;;;;;2.33;1.70;;;22.30;99.90;;;;;;5051332;28;20460;-41
2022/10/19 11:35:41;;;;;;;1.77;1.67;;;22.30;99.90;;;;;;5045302;28;20576;-42
2022/10/19 11:38:25;;;;;;;1.30;1.20;;;22.30;99.90;;;;;;5049568;28;20829;-42
2022/10/19 11:41:04;;;;;;;1.53;1.30;;;22.30;99.90;;;;;;5050334;28;20461;-42
2022/10/19 11:43:37;;;;;;;1.70;1.30;;;22.30;99.90;;;;;;5044789;28;20449;-40
2022/10/19 11:46:15;;;;;;;1.20;1.10;;;22.30;99.90;;;;;;5051485;28;20459;-41
2022/10/19 11:48:56;;;;;;;1.30;1.20;;;22.30;99.90;;;;;;5041814;28;21013;-42
2022/10/19 11:51:31;;;;;;;1.43;1.17;;;22.30;99.90;;;;;;5036764;28;20446;-43
2022/10/19 11:54:12;;;;;;;1.90;1.20;;;22.30;99.90;;;;;;5049237;28;20464;-44
2022/10/19 11:56:47;;;;;;;1.73;1.20;;;22.40;99.90;;;;;;5039006;28;20462;-41
2022/10/19 11:59:25;;;;;;;2.33;1.10;;;22.40;99.90;;;;;;5045160;28;20859;-41
2022/10/19 12:02:02;;;;;;;1.70;1.10;;;22.40;99.90;;;;;;5051277;28;20469;-37
2022/10/19 12:04:42;;;;;;;1.77;1.37;;;22.40;99.90;;;;;;5052727;28;20441;-42
2022/10/19 12:07:25;;;;;;;1.30;1.10;;;22.40;99.90;;;;;;5047936;28;20445;-42
2022/10/19 12:10:03;;;;;;;1.43;1.07;;;22.40;99.90;;;;;;5045320;28;20457;-41
2022/10/19 12:12:33;;;;;;;1.40;1.10;;;22.40;99.90;;;;;;5052934;28;20452;-41
2022/10/19 12:15:20;;;;;;;1.50;1.20;;;22.40;99.90;;;;;;5051381;28;20951;-41
2022/10/19 12:17:49;;;;;;;1.43;1.00;;;22.40;99.90;;;;;;5033478;28;20488;-42
2022/10/19 12:20:25;;;;;;;1.53;1.30;;;22.40;99.90;;;;;;5048237;28;20453;-40
2022/10/19 12:22:52;;;;;;;1.20;0.90;;;22.40;99.90;;;;;;5050924;28;20461;-41
2022/10/19 12:25:20;;;;;;;2.27;1.33;;;22.40;99.90;;;;;;5051211;28;20820;-42
2022/10/19 12:27:50;;;;;;;1.93;1.30;;;22.40;99.90;;;;;;5052443;28;20473;-42
2022/10/19 12:30:20;;;;;;;1.10;0.90;;;22.40;99.90;;;;;;5045005;28;20461;-44
2022/10/19 12:33:01;;;;;;;1.40;1.17;;;22.40;99.90;;;;;;5051605;28;20468;-43
2022/10/19 12:35:47;;;;;;;1.33;1.17;;;22.40;99.90;;;;;;5052037;28;20514;-41
2022/10/19 12:38:19;;;;;;;1.40;1.13;;;22.40;99.90;;;;;;5046788;28;20991;-42
2022/10/19 12:40:53;;;;;;;2.37;0.90;;;22.40;99.90;;;;;;5045662;28;20473;-41
2022/10/19 12:43:27;;;;;;;1.40;1.10;;;22.40;99.90;;;;;;5037550;28;20466;-43
2022/10/19 12:46:08;;;;;;;1.97;1.10;;;22.40;99.90;;;;;;5044318;28;20453;-46
2022/10/19 12:48:38;;;;;;;1.70;1.40;;;22.40;99.90;;;;;;5036470;28;20485;-37
2022/10/19 12:51:11;;;;;;;1.50;1.40;;;21.40;93.30;;;;;;5030083;28;20862;-36
2022/10/19 12:53:40;;;;;;;3.25;1.30;;;17.30;96.30;;;;;;5031571;28;20188;-36
2022/10/19 12:56:11;;;;;;;4.68;1.40;;;17.10;99.90;;;;;;5048235;28;20195;-36
2022/10/19 12:58:53;;;;;;;2.05;1.48;;;16.60;99.90;;;;;;5031485;28;20732;-36
2022/10/19 13:01:24;;;;;;;3.70;1.65;;;16.20;99.90;;;;;;5044921;28;20372;-34